Time;durP1;ratioP1;P1;durP2;ratioP2;P2;SDS_P1;SDS_P2;PMS_P1;PMS_P2;Temp;Humidity;BMP_temperature;BMP_pressure;BME280_temperature;BME280_humidity;BME280_pressure;Samples;Min_cycle;Max_cycle;Signal;HPM_P1;HPM_P2
2023/07/01 00:01:37;;;;;;;3.00;2.75;;;;;;;;;;5016927;28;20208;-48
2023/07/01 00:04:04;;;;;;;4.63;3.00;;;;;;;;;;5017005;28;20207;-48
2023/07/01 00:06:29;;;;;;;3.35;2.90;;;;;;;;;;5017572;28;20238;-48
2023/07/01 00:08:55;;;;;;;5.20;3.30;;;;;;;;;;5020812;28;20572;-48
2023/07/01 00:11:21;;;;;;;4.45;3.08;;;;;;;;;;5016587;28;20184;-48
2023/07/01 00:13:48;;;;;;;3.90;3.15;;;;;;;;;;5016864;28;20176;-48
2023/07/01 00:16:14;;;;;;;5.10;3.00;;;;;;;;;;5016107;28;20180;-48
2023/07/01 00:18:40;;;;;;;7.97;3.20;;;;;;;;;;5017343;28;20191;-48
2023/07/01 00:21:07;;;;;;;4.40;3.53;;;;;;;;;;5016514;28;20204;-48
2023/07/01 00:23:33;;;;;;;4.43;3.10;;;;;;;;;;5022988;28;20230;-48
2023/07/01 00:25:58;;;;;;;4.05;2.90;;;;;;;;;;5016575;28;20219;-48
2023/07/01 00:28:24;;;;;;;3.65;2.97;;;;;;;;;;5016840;28;20212;-48
2023/07/01 00:30:50;;;;;;;4.07;3.17;;;;;;;;;;5016483;28;20198;-48
2023/07/01 00:33:16;;;;;;;3.13;2.78;;;;;;;;;;5015926;28;20219;-48
2023/07/01 00:35:42;;;;;;;3.40;3.05;;;;;;;;;;5016365;28;20227;-48
2023/07/01 00:38:08;;;;;;;5.10;3.05;;;;;;;;;;5016112;28;20431;-48
2023/07/01 00:40:34;;;;;;;4.53;2.83;;;;;;;;;;5016411;28;20212;-48
2023/07/01 00:43:00;;;;;;;3.90;3.00;;;;;;;;;;5016245;28;20188;-48
2023/07/01 00:45:26;;;;;;;3.80;2.70;;;;;;;;;;5016138;28;20200;-48
2023/07/01 00:47:52;;;;;;;4.65;2.85;;;;;;;;;;5016122;28;20242;-48
2023/07/01 00:50:18;;;;;;;4.90;2.90;;;;;;;;;;5014780;28;20188;-48
2023/07/01 00:52:44;;;;;;;3.33;2.65;;;;;;;;;;5015971;28;20307;-48
2023/07/01 00:55:10;;;;;;;4.80;2.45;;;;;;;;;;5016208;28;20187;-48
2023/07/01 00:57:36;;;;;;;3.97;3.08;;;;;;;;;;5016128;28;20454;-48
2023/07/01 01:00:04;;;;;;;4.25;2.85;;;;;;;;;;5023486;28;20282;-48
2023/07/01 01:02:33;;;;;;;3.72;2.92;;;;;;;;;;5015950;28;20212;-48
2023/07/01 01:05:10;;;;;;;4.60;2.80;;;;;;;;;;5016408;28;20496;-48
2023/07/01 01:07:42;;;;;;;11.98;3.08;;;;;;;;;;5015339;28;20177;-48
2023/07/01 01:10:11;;;;;;;4.32;3.10;;;;;;;;;;5015968;28;20263;-48
2023/07/01 01:12:37;;;;;;;6.00;2.92;;;;;;;;;;5015339;28;20188;-48
2023/07/01 01:15:04;;;;;;;2.65;2.33;;;;;;;;;;5015962;28;20243;-48
2023/07/01 01:17:32;;;;;;;5.00;3.15;;;;;;;;;;5015434;28;20200;-48
2023/07/01 01:20:00;;;;;;;4.72;2.53;;;;;;;;;;5015547;28;20568;-48
2023/07/01 01:22:28;;;;;;;2.90;2.60;;;;;;;;;;5014452;28;20228;-48
2023/07/01 01:24:55;;;;;;;3.03;2.70;;;;;;;;;;5024592;28;20211;-48
2023/07/01 01:27:25;;;;;;;3.35;3.05;;;;;;;;;;5015250;28;20193;-48
2023/07/01 01:29:51;;;;;;;5.75;3.08;;;;;;;;;;5015210;28;20239;-48
2023/07/01 01:32:17;;;;;;;5.78;2.40;;;;;;;;;;5015987;28;20189;-48
2023/07/01 01:34:43;;;;;;;3.28;2.97;;;;;;;;;;5016905;28;20606;-48
2023/07/01 01:37:13;;;;;;;6.05;2.40;;;;;;;;;;5014496;28;20192;-48
2023/07/01 01:39:44;;;;;;;2.58;2.38;;;;;;;;;;5014308;28;20242;-48
2023/07/01 01:42:17;;;;;;;4.15;2.42;;;;;;;;;;5015243;28;20200;-48
2023/07/01 01:44:51;;;;;;;3.30;2.75;;;;;;;;;;5015076;28;20204;-48
2023/07/01 01:47:21;;;;;;;5.22;2.78;;;;;;;;;;5022869;28;20171;-48
2023/07/01 01:49:51;;;;;;;5.78;2.40;;;;;;;;;;5015250;28;20242;-47
2023/07/01 01:52:17;;;;;;;4.03;2.45;;;;;;;;;;5016226;28;20238;-47
2023/07/01 01:54:47;;;;;;;4.22;2.83;;;;;;;;;;5014501;28;20195;-47
2023/07/01 01:57:13;;;;;;;3.83;2.33;;;;;;;;;;5014167;28;20191;-47
2023/07/01 01:59:39;;;;;;;3.50;2.38;;;;;;;;;;5023002;28;20633;-47
2023/07/01 02:02:05;;;;;;;2.88;2.50;;;;;;;;;;5014611;28;20181;-47
2023/07/01 02:04:31;;;;;;;2.80;2.60;;;;;;;;;;5015502;28;20188;-47
2023/07/01 02:06:57;;;;;;;2.70;2.40;;;;;;;;;;5014656;28;20215;-47
2023/07/01 02:09:23;;;;;;;7.38;2.75;;;;;;;;;;5014964;28;20262;-47
2023/07/01 02:11:49;;;;;;;4.50;2.58;;;;;;;;;;5014689;28;20591;-48
2023/07/01 02:14:15;;;;;;;3.95;2.85;;;;;;;;;;5014947;28;20264;-48
2023/07/01 02:16:41;;;;;;;3.17;2.45;;;;;;;;;;5016791;28;20193;-48
2023/07/01 02:19:07;;;;;;;4.60;2.42;;;;;;;;;;4997343;28;20480;-48
2023/07/01 02:21:33;;;;;;;3.72;2.42;;;;;;;;;;5014189;28;20223;-48
2023/07/01 02:23:59;;;;;;;5.40;3.00;;;;;;;;;;5021244;28;20439;-48
2023/07/01 02:26:25;;;;;;;3.58;2.58;;;;;;;;;;5017266;28;20190;-48
2023/07/01 02:28:51;;;;;;;4.32;2.80;;;;;;;;;;5014523;28;20198;-48
2023/07/01 02:31:18;;;;;;;2.75;2.30;;;;;;;;;;5018278;28;20180;-48
2023/07/01 02:33:47;;;;;;;2.47;2.28;;;;;;;;;;5015504;28;20187;-47
2023/07/01 02:36:13;;;;;;;3.75;2.50;;;;;;;;;;5018023;28;20452;-47
2023/07/01 02:38:39;;;;;;;2.97;2.63;;;;;;;;;;5018946;28;20187;-48
2023/07/01 02:41:05;;;;;;;3.75;2.45;;;;;;;;;;5018688;28;20235;-48
2023/07/01 02:43:31;;;;;;;2.60;2.28;;;;;;;;;;5018315;28;20563;-48
2023/07/01 02:45:57;;;;;;;4.93;2.65;;;;;;;;;;5013157;28;20244;-48
2023/07/01 02:48:23;;;;;;;5.05;2.95;;;;;;;;;;5017302;28;20180;-48
2023/07/01 02:50:48;;;;;;;3.03;2.70;;;;;;;;;;5018008;28;20184;-48
2023/07/01 02:53:15;;;;;;;3.90;2.40;;;;;;;;;;5018212;28;20230;-48
2023/07/01 02:55:41;;;;;;;3.15;2.38;;;;;;;;;;5021233;28;20570;-48
2023/07/01 02:58:07;;;;;;;4.30;2.70;;;;;;;;;;5017829;28;20211;-48
2023/07/01 03:00:33;;;;;;;4.05;2.90;;;;;;;;;;5018226;28;20254;-48
2023/07/01 03:03:05;;;;;;;3.53;2.78;;;;;;;;;;5017781;28;20232;-48
2023/07/01 03:05:32;;;;;;;3.85;3.03;;;;;;;;;;5017958;28;20598;-48
2023/07/01 03:07:58;;;;;;;5.20;3.15;;;;;;;;;;5017675;28;20220;-48
2023/07/01 03:10:24;;;;;;;6.03;3.05;;;;;;;;;;5018593;28;20184;-48
2023/07/01 03:12:50;;;;;;;6.57;2.70;;;;;;;;;;5021881;28;20224;-48
2023/07/01 03:15:16;;;;;;;3.35;2.53;;;;;;;;;;5017906;28;20184;-48
2023/07/01 03:17:42;;;;;;;3.53;2.67;;;;;;;;;;5019382;28;20192;-48
2023/07/01 03:20:22;;;;;;;4.10;2.83;;;;;;;;;;5017829;28;20216;-48
2023/07/01 03:22:48;;;;;;;3.10;2.58;;;;;;;;;;5017434;28;20582;-48
2023/07/01 03:25:15;;;;;;;2.30;2.10;;;;;;;;;;5025429;28;20184;-48
2023/07/01 03:27:41;;;;;;;4.72;2.25;;;;;;;;;;5016695;28;20276;-48
2023/07/01 03:30:13;;;;;;;3.60;2.13;;;;;;;;;;5017813;28;20282;-48
2023/07/01 03:32:39;;;;;;;3.58;2.45;;;;;;;;;;5017875;28;20180;-48
2023/07/01 03:35:05;;;;;;;1.80;1.70;;;;;;;;;;5017401;28;20191;-48
2023/07/01 03:37:31;;;;;;;3.13;2.15;;;;;;;;;;5019400;28;20280;-48
2023/07/01 03:39:57;;;;;;;2.08;1.98;;;;;;;;;;5017278;28;20539;-48
2023/07/01 03:42:23;;;;;;;2.05;1.92;;;;;;;;;;5017104;28;20180;-48
2023/07/01 03:44:49;;;;;;;2.97;1.80;;;;;;;;;;5015722;28;20204;-48
2023/07/01 03:47:14;;;;;;;2.10;1.90;;;;;;;;;;5016604;28;20180;-48
2023/07/01 03:49:40;;;;;;;3.03;1.70;;;;;;;;;;5016333;28;20191;-48
2023/07/01 03:52:08;;;;;;;2.25;1.42;;;;;;;;;;5017016;28;20511;-48
2023/07/01 03:54:34;;;;;;;1.70;1.60;;;;;;;;;;5015917;28;20192;-48
2023/07/01 03:57:00;;;;;;;1.70;1.60;;;;;;;;;;5016300;28;20707;-48
2023/07/01 03:59:25;;;;;;;1.30;1.20;;;;;;;;;;5017301;28;20594;-48
2023/07/01 04:01:52;;;;;;;1.63;1.52;;;;;;;;;;5017824;28;20303;-48
2023/07/01 04:04:18;;;;;;;1.48;1.38;;;;;;;;;;5016709;28;20536;-48
2023/07/01 04:06:44;;;;;;;1.45;1.35;;;;;;;;;;5018929;28;20192;-48
2023/07/01 04:09:12;;;;;;;1.40;1.30;;;;;;;;;;5019911;28;20184;-48
2023/07/01 04:11:38;;;;;;;1.25;1.20;;;;;;;;;;5012487;28;20556;-48
2023/07/01 04:14:04;;;;;;;1.55;1.45;;;;;;;;;;5016549;28;20188;-48
2023/07/01 04:16:30;;;;;;;1.88;1.40;;;;;;;;;;5016303;28;20443;-48
2023/07/01 04:18:56;;;;;;;1.48;1.38;;;;;;;;;;5016875;28;20287;-48
2023/07/01 04:21:22;;;;;;;1.23;1.13;;;;;;;;;;5023263;28;20204;-48
2023/07/01 04:23:48;;;;;;;1.88;1.40;;;;;;;;;;5016354;28;20181;-48
2023/07/01 04:26:15;;;;;;;1.75;1.50;;;;;;;;;;5015478;28;20496;-48
2023/07/01 04:28:41;;;;;;;2.38;1.40;;;;;;;;;;5017910;28;20192;-48
2023/07/01 04:31:07;;;;;;;2.58;1.55;;;;;;;;;;4999473;28;20542;-48
2023/07/01 04:33:33;;;;;;;1.50;1.40;;;;;;;;;;5016367;28;20192;-48
2023/07/01 04:35:59;;;;;;;1.77;1.42;;;;;;;;;;5016294;28;20180;-48
2023/07/01 04:38:25;;;;;;;3.28;1.85;;;;;;;;;;5015573;28;20188;-48
2023/07/01 04:40:51;;;;;;;1.60;1.50;;;;;;;;;;5016163;28;20212;-48
2023/07/01 04:43:17;;;;;;;3.22;1.80;;;;;;;;;;5016025;28;20287;-48
2023/07/01 04:45:43;;;;;;;1.77;1.67;;;;;;;;;;5018167;28;20486;-48
2023/07/01 04:48:10;;;;;;;1.48;1.38;;;;;;;;;;5016884;28;20226;-48
2023/07/01 04:50:36;;;;;;;2.95;1.80;;;;;;;;;;5015921;28;20180;-48
2023/07/01 04:53:02;;;;;;;2.28;1.83;;;;;;;;;;5015708;28;20212;-48
2023/07/01 04:55:28;;;;;;;3.40;1.80;;;;;;;;;;5016168;28;20215;-48
2023/07/01 04:57:54;;;;;;;4.82;2.30;;;;;;;;;;5012575;28;20189;-48
2023/07/01 05:00:21;;;;;;;1.98;1.83;;;;;;;;;;5016009;28;20196;-48
2023/07/01 05:02:47;;;;;;;2.83;2.10;;;;;;;;;;5015546;28;20583;-48
2023/07/01 05:05:13;;;;;;;3.15;2.33;;;;;;;;;;5017307;28;20184;-48
2023/07/01 05:07:38;;;;;;;5.47;2.53;;;;;;;;;;5020310;28;20195;-48
2023/07/01 05:10:05;;;;;;;3.17;2.80;;;;;;;;;;5015998;28;20444;-48
2023/07/01 05:12:31;;;;;;;4.68;3.15;;;;;;;;;;5015875;28;20264;-48
2023/07/01 05:14:57;;;;;;;4.65;2.95;;;;;;;;;;5015575;28;20335;-48
2023/07/01 05:17:23;;;;;;;3.13;2.83;;;;;;;;;;5021717;28;20172;-48
2023/07/01 05:19:49;;;;;;;5.93;3.40;;;;;;;;;;5015342;28;20207;-48
2023/07/01 05:22:15;;;;;;;4.57;3.53;;;;;;;;;;5015453;28;20254;-48
2023/07/01 05:24:41;;;;;;;5.70;3.88;;;;;;;;;;5015563;28;20208;-48
2023/07/01 05:27:07;;;;;;;5.35;4.25;;;;;;;;;;5022192;28;20185;-48
2023/07/01 05:29:32;;;;;;;5.80;4.10;;;;;;;;;;5021535;28;20188;-48
2023/07/01 05:31:58;;;;;;;6.10;3.10;;;;;;;;;;5015432;28;20555;-48
2023/07/01 05:34:24;;;;;;;4.47;3.70;;;;;;;;;;5015480;28;20615;-48
2023/07/01 05:36:50;;;;;;;3.97;3.42;;;;;;;;;;5017266;28;20200;-48
2023/07/01 05:39:17;;;;;;;4.25;3.85;;;;;;;;;;5015092;28;20499;-48
2023/07/01 05:41:43;;;;;;;5.13;3.83;;;;;;;;;;5015398;28;20495;-48
2023/07/01 05:44:10;;;;;;;4.90;3.70;;;;;;;;;;5015048;28;20197;-48
2023/07/01 05:46:38;;;;;;;5.80;4.07;;;;;;;;;;5016408;28;20197;-48
2023/07/01 05:49:04;;;;;;;6.78;4.30;;;;;;;;;;5016900;28;20210;-49
2023/07/01 05:51:29;;;;;;;5.18;3.85;;;;;;;;;;5017117;28;20177;-49
2023/07/01 05:53:55;;;;;;;7.00;3.70;;;;;;;;;;5017097;28;20200;-49
2023/07/01 05:56:21;;;;;;;6.20;4.10;;;;;;;;;;5016772;28;20315;-49
2023/07/01 05:58:47;;;;;;;7.30;4.40;;;;;;;;;;5017079;28;20283;-49
2023/07/01 06:01:13;;;;;;;4.05;3.45;;;;;;;;;;5017015;28;20196;-49
2023/07/01 06:03:39;;;;;;;5.15;3.80;;;;;;;;;;4999690;28;20180;-49
2023/07/01 06:06:05;;;;;;;6.53;4.35;;;;;;;;;;5016938;28;20175;-48
2023/07/01 06:08:31;;;;;;;7.35;4.45;;;;;;;;;;5016358;28;20230;-48
2023/07/01 06:10:57;;;;;;;9.00;4.85;;;;;;;;;;5016820;28;20182;-49
2023/07/01 06:13:23;;;;;;;5.40;3.80;;;;;;;;;;5016808;28;20219;-48
2023/07/01 06:15:48;;;;;;;8.35;4.47;;;;;;;;;;5016880;28;20173;-48
2023/07/01 06:18:14;;;;;;;5.63;3.50;;;;;;;;;;5016550;28;20219;-49
2023/07/01 06:20:40;;;;;;;8.32;4.07;;;;;;;;;;5016595;28;20353;-49
2023/07/01 06:23:06;;;;;;;5.90;4.30;;;;;;;;;;5016643;28;20171;-48
2023/07/01 06:25:32;;;;;;;5.95;3.88;;;;;;;;;;4999457;28;20251;-48
2023/07/01 06:27:58;;;;;;;7.07;4.13;;;;;;;;;;5016502;28;20169;-48
2023/07/01 06:30:24;;;;;;;7.20;4.10;;;;;;;;;;5016728;28;20551;-48
2023/07/01 06:32:50;;;;;;;5.65;3.75;;;;;;;;;;5016644;28;20256;-49
2023/07/01 06:35:16;;;;;;;4.85;3.35;;;;;;;;;;5016593;28;20540;-48
2023/07/01 06:37:42;;;;;;;3.40;3.10;;;;;;;;;;5016381;28;20185;-48
2023/07/01 06:40:08;;;;;;;4.75;3.45;;;;;;;;;;5016443;28;20267;-48
2023/07/01 06:42:35;;;;;;;6.15;3.95;;;;;;;;;;5016539;28;20185;-47
2023/07/01 06:45:01;;;;;;;7.38;3.25;;;;;;;;;;5015044;28;20192;-47
2023/07/01 06:47:27;;;;;;;6.45;3.28;;;;;;;;;;5018817;28;20284;-48
2023/07/01 06:49:53;;;;;;;5.03;3.15;;;;;;;;;;5017576;28;20234;-47
2023/07/01 06:52:18;;;;;;;4.70;3.08;;;;;;;;;;5013398;28;20184;-48
2023/07/01 06:54:44;;;;;;;3.78;3.10;;;;;;;;;;5013930;28;20184;-48
2023/07/01 06:57:10;;;;;;;4.68;2.97;;;;;;;;;;5013928;28;20271;-47
2023/07/01 06:59:36;;;;;;;4.97;3.30;;;;;;;;;;5014151;28;20223;-47
2023/07/01 07:02:02;;;;;;;5.00;3.67;;;;;;;;;;5014423;28;20168;-47
2023/07/01 07:04:28;;;;;;;3.80;3.10;;;;;;;;;;4996615;28;20177;-48
2023/07/01 07:06:54;;;;;;;3.85;2.83;;;;;;;;;;5017200;28;20202;-47
2023/07/01 07:09:20;;;;;;;5.00;3.42;;;;;;;;;;5013740;28;20516;-47
2023/07/01 07:11:46;;;;;;;5.18;3.28;;;;;;;;;;5014032;28;20197;-47
2023/07/01 07:14:12;;;;;;;3.58;2.97;;;;;;;;;;5014139;28;20189;-47
2023/07/01 07:16:38;;;;;;;5.05;3.08;;;;;;;;;;5017970;28;20469;-47
2023/07/01 07:19:04;;;;;;;7.30;3.50;;;;;;;;;;5018422;28;20208;-46
2023/07/01 07:21:29;;;;;;;4.43;3.20;;;;;;;;;;5021414;28;20599;-46
2023/07/01 07:23:55;;;;;;;3.90;3.10;;;;;;;;;;5017803;28;20188;-46
2023/07/01 07:26:21;;;;;;;4.25;3.00;;;;;;;;;;5017511;28;20188;-47
2023/07/01 07:28:47;;;;;;;5.35;3.53;;;;;;;;;;5017678;28;20343;-47
2023/07/01 07:31:13;;;;;;;5.32;3.10;;;;;;;;;;5017529;28;20176;-47
2023/07/01 07:33:39;;;;;;;4.88;3.10;;;;;;;;;;5016561;28;20180;-47
2023/07/01 07:36:05;;;;;;;4.88;3.33;;;;;;;;;;5017659;28;20188;-47
2023/07/01 07:38:31;;;;;;;4.88;2.95;;;;;;;;;;5018428;28;20243;-46
2023/07/01 07:40:57;;;;;;;4.05;2.70;;;;;;;;;;5003659;28;20240;-47
2023/07/01 07:43:22;;;;;;;4.10;2.92;;;;;;;;;;5018520;28;20247;-47
2023/07/01 07:45:48;;;;;;;3.58;2.55;;;;;;;;;;5017582;28;20478;-47
2023/07/01 07:48:14;;;;;;;5.47;3.03;;;;;;;;;;5016191;28;20187;-47
2023/07/01 07:50:40;;;;;;;4.82;2.95;;;;;;;;;;5017301;28;20275;-46
2023/07/01 07:53:06;;;;;;;3.75;2.60;;;;;;;;;;5021688;28;20211;-46
2023/07/01 07:55:33;;;;;;;4.90;2.70;;;;;;;;;;5019081;28;20243;-46
2023/07/01 07:58:00;;;;;;;6.70;3.50;;;;;;;;;;5016170;28;20180;-46
2023/07/01 08:00:27;;;;;;;3.00;2.67;;;;;;;;;;5016980;28;20456;-46
2023/07/01 08:02:53;;;;;;;4.03;2.70;;;;;;;;;;5016339;28;20180;-46
2023/07/01 08:05:21;;;;;;;4.18;2.30;;;;;;;;;;4999437;28;20226;-46
2023/07/01 08:07:47;;;;;;;2.53;2.33;;;;;;;;;;5016657;28;20192;-46
2023/07/01 08:10:13;;;;;;;2.55;2.28;;;;;;;;;;5016958;28;20246;-46
2023/07/01 08:12:39;;;;;;;5.13;2.33;;;;;;;;;;4999613;28;20254;-46
2023/07/01 08:15:05;;;;;;;5.10;2.53;;;;;;;;;;5016878;28;20552;-47
2023/07/01 08:17:31;;;;;;;3.45;2.15;;;;;;;;;;5015946;28;20188;-46
2023/07/01 08:19:57;;;;;;;4.75;2.20;;;;;;;;;;5016541;28;20343;-46
2023/07/01 08:22:23;;;;;;;2.67;2.42;;;;;;;;;;5016484;28;20611;-46
2023/07/01 08:24:49;;;;;;;3.95;2.67;;;;;;;;;;4999532;28;20188;-46
2023/07/01 08:27:15;;;;;;;5.22;2.83;;;;;;;;;;5015844;28;20176;-46
2023/07/01 08:29:41;;;;;;;4.60;2.65;;;;;;;;;;5015937;28;20195;-46
2023/07/01 08:32:07;;;;;;;2.97;2.58;;;;;;;;;;5015953;28;20180;-46
2023/07/01 08:34:35;;;;;;;4.70;2.60;;;;;;;;;;5019190;28;20197;-47
2023/07/01 08:37:01;;;;;;;2.63;2.35;;;;;;;;;;5016180;28;20200;-47
2023/07/01 08:39:27;;;;;;;4.18;2.10;;;;;;;;;;5015994;28;20271;-47
2023/07/01 08:41:57;;;;;;;2.13;1.88;;;;;;;;;;5016661;28;20537;-46
2023/07/01 08:44:24;;;;;;;2.72;1.98;;;;;;;;;;5022341;28;20214;-48
2023/07/01 08:46:53;;;;;;;4.32;2.03;;;;;;;;;;5015743;28;20288;-48
2023/07/01 08:49:21;;;;;;;2.83;2.45;;;;;;;;;;5015309;28;20444;-46
2023/07/01 08:51:48;;;;;;;5.10;2.33;;;;;;;;;;5016180;28;20715;-46
2023/07/01 08:54:14;;;;;;;3.85;2.60;;;;;;;;;;5021103;28;20175;-47
2023/07/01 08:56:40;;;;;;;3.65;2.33;;;;;;;;;;5014835;28;20290;-46
2023/07/01 08:59:06;;;;;;;8.07;2.35;;;;;;;;;;5016199;28;20181;-46
2023/07/01 09:01:32;;;;;;;2.85;1.80;;;;;;;;;;5015460;28;20567;-46
2023/07/01 09:04:00;;;;;;;4.72;2.13;;;;;;;;;;5015922;28;20177;-48
2023/07/01 09:06:26;;;;;;;4.72;2.13;;;;;;;;;;5015051;28;20606;-48
2023/07/01 09:08:54;;;;;;;4.68;2.08;;;;;;;;;;5015927;28;20184;-48
2023/07/01 09:11:19;;;;;;;1.90;1.80;;;;;;;;;;5015678;28;20195;-48
2023/07/01 09:13:45;;;;;;;2.92;1.70;;;;;;;;;;5017755;28;20185;-47
2023/07/01 09:16:11;;;;;;;2.40;1.98;;;;;;;;;;5019669;28;20559;-47
2023/07/01 09:18:42;;;;;;;2.28;2.08;;;;;;;;;;5015633;28;20645;-48
2023/07/01 09:21:17;;;;;;;3.30;2.00;;;;;;;;;;5015544;28;20240;-48
2023/07/01 09:23:44;;;;;;;5.20;1.98;;;;;;;;;;5019027;28;20547;-46
2023/07/01 09:26:14;;;;;;;2.28;1.77;;;;;;;;;;5021455;28;20175;-47
2023/07/01 09:28:41;;;;;;;2.55;1.83;;;;;;;;;;5016167;28;20172;-47
2023/07/01 09:31:09;;;;;;;3.33;1.90;;;;;;;;;;5015618;28;20593;-47
2023/07/01 09:33:35;;;;;;;2.33;1.80;;;;;;;;;;5015288;28;20547;-47
2023/07/01 09:36:02;;;;;;;4.30;1.80;;;;;;;;;;5014976;28;20180;-46
2023/07/01 09:38:28;;;;;;;3.88;2.13;;;;;;;;;;5014442;28;20719;-46
2023/07/01 09:40:54;;;;;;;2.97;1.90;;;;;;;;;;5015268;28;20219;-48
2023/07/01 09:43:31;;;;;;;2.10;1.88;;;;;;;;;;5013119;28;20195;-48
2023/07/01 09:45:57;;;;;;;2.63;1.92;;;;;;;;;;5015580;28;20208;-48
2023/07/01 09:48:23;;;;;;;2.47;1.90;;;;;;;;;;5013425;28;20204;-48
2023/07/01 09:50:49;;;;;;;4.95;1.90;;;;;;;;;;5014342;28;20223;-48
2023/07/01 09:53:19;;;;;;;1.80;1.70;;;;;;;;;;5015939;28;20189;-48
2023/07/01 09:55:46;;;;;;;5.07;1.88;;;;;;;;;;5020033;28;20204;-48
2023/07/01 09:58:12;;;;;;;3.85;2.13;;;;;;;;;;5014855;28;20207;-48
2023/07/01 10:00:38;;;;;;;4.35;2.72;;;;;;;;;;5016690;28;20196;-48
2023/07/01 10:03:04;;;;;;;3.13;1.98;;;;;;;;;;5022353;28;20185;-48
2023/07/01 10:05:31;;;;;;;4.03;2.60;;;;;;;;;;5017941;28;20184;-48
2023/07/01 10:07:57;;;;;;;7.18;2.85;;;;;;;;;;5014096;28;20693;-48
2023/07/01 10:10:23;;;;;;;5.20;2.10;;;;;;;;;;5018054;28;20257;-48
2023/07/01 10:12:50;;;;;;;5.13;2.28;;;;;;;;;;5015753;28;20605;-48
2023/07/01 10:15:19;;;;;;;4.05;2.00;;;;;;;;;;5015330;28;20238;-48
2023/07/01 10:17:48;;;;;;;3.75;2.08;;;;;;;;;;5015594;28;20200;-48
2023/07/01 10:20:24;;;;;;;3.65;2.20;;;;;;;;;;5024943;28;20204;-48
2023/07/01 10:22:54;;;;;;;2.40;1.90;;;;;;;;;;5015420;28;20191;-48
2023/07/01 10:25:34;;;;;;;2.80;2.00;;;;;;;;;;5014707;28;20255;-48
2023/07/01 10:28:00;;;;;;;4.43;2.38;;;;;;;;;;5011533;28;20219;-48
2023/07/01 10:30:26;;;;;;;4.60;2.15;;;;;;;;;;5014535;28;20623;-48
2023/07/01 10:32:52;;;;;;;7.80;2.33;;;;;;;;;;5012576;28;20212;-47
2023/07/01 10:35:18;;;;;;;3.25;2.22;;;;;;;;;;5019917;28;20245;-47
2023/07/01 10:38:03;;;;;;;2.80;2.15;;;;;;;;;;5019045;28;20198;-47
2023/07/01 10:40:28;;;;;;;3.75;2.38;;;;;;;;;;5014094;28;20273;-47
2023/07/01 10:43:21;;;;;;;2.63;2.42;;;;;;;;;;5013342;28;20716;-47
2023/07/01 10:46:03;;;;;;;3.05;2.20;;;;;;;;;;5019135;28;20176;-47
2023/07/01 10:48:29;;;;;;;6.93;2.45;;;;;;;;;;5013655;28;20693;-48
2023/07/01 10:51:08;;;;;;;4.43;2.60;;;;;;;;;;5011477;28;20203;-48
2023/07/01 10:53:53;;;;;;;3.92;2.72;;;;;;;;;;5013743;28;20176;-48
2023/07/01 10:56:19;;;;;;;3.97;2.70;;;;;;;;;;5018620;28;20188;-48
2023/07/01 10:58:44;;;;;;;5.50;2.60;;;;;;;;;;5019346;28;20359;-42
2023/07/01 11:01:30;;;;;;;3.25;2.17;;;;;;;;;;5018348;28;20335;-43
2023/07/01 11:03:56;;;;;;;3.42;2.30;;;;;;;;;;5017759;28;20177;-43
2023/07/01 11:06:22;;;;;;;4.00;3.13;;;;;;;;;;5017863;28;20222;-43
2023/07/01 11:08:53;;;;;;;4.95;2.55;;;;;;;;;;5001886;28;20185;-45
2023/07/01 11:11:24;;;;;;;2.88;2.35;;;;;;;;;;5025979;28;20215;-44
2023/07/01 11:13:58;;;;;;;3.22;2.63;;;;;;;;;;5006172;28;20611;-45
2023/07/01 11:16:25;;;;;;;4.25;2.65;;;;;;;;;;5017692;28;20188;-45
2023/07/01 11:18:52;;;;;;;3.97;2.72;;;;;;;;;;5018090;28;20177;-43
2023/07/01 11:21:19;;;;;;;4.75;2.88;;;;;;;;;;5017896;28;20255;-42
2023/07/01 11:23:55;;;;;;;4.63;2.40;;;;;;;;;;5022086;28;20183;-44
2023/07/01 11:26:22;;;;;;;5.30;2.95;;;;;;;;;;5017424;28;20184;-45
2023/07/01 11:28:48;;;;;;;3.58;2.38;;;;;;;;;;5017610;28;20196;-45
2023/07/01 11:31:18;;;;;;;2.80;2.25;;;;;;;;;;5017788;28;20176;-45
2023/07/01 11:33:54;;;;;;;3.03;2.40;;;;;;;;;;5022276;28;20230;-45
2023/07/01 11:36:21;;;;;;;3.40;2.60;;;;;;;;;;5020538;28;20455;-45
2023/07/01 11:38:48;;;;;;;4.43;2.35;;;;;;;;;;5015725;28;20315;-45
2023/07/01 11:41:23;;;;;;;2.60;2.40;;;;;;;;;;5014703;28;20219;-46
2023/07/01 11:43:49;;;;;;;3.20;2.40;;;;;;;;;;5013671;28;20199;-45
2023/07/01 11:46:29;;;;;;;3.72;2.40;;;;;;;;;;5011941;28;20227;-45
2023/07/01 11:48:55;;;;;;;3.38;2.40;;;;;;;;;;5011616;28;20489;-45
2023/07/01 11:51:36;;;;;;;4.13;2.60;;;;;;;;;;5016183;28;20226;-45
2023/07/01 11:54:02;;;;;;;3.78;2.58;;;;;;;;;;5017045;28;20304;-42
2023/07/01 11:56:28;;;;;;;5.20;2.80;;;;;;;;;;5016768;28;20699;-46
2023/07/01 11:58:53;;;;;;;4.30;2.80;;;;;;;;;;5017302;28;20180;-45
2023/07/01 12:01:26;;;;;;;5.57;2.90;;;;;;;;;;5016865;28;20244;-43
2023/07/01 12:03:55;;;;;;;7.82;3.22;;;;;;;;;;5017135;28;20563;-44
2023/07/01 12:06:25;;;;;;;3.72;3.15;;;;;;;;;;5015952;28;20208;-46
2023/07/01 12:08:57;;;;;;;4.93;2.95;;;;;;;;;;5016701;28;20189;-46
2023/07/01 12:11:23;;;;;;;3.33;2.67;;;;;;;;;;5013011;28;20568;-44
2023/07/01 12:13:50;;;;;;;4.47;2.92;;;;;;;;;;5017343;28;20188;-45
2023/07/01 12:16:17;;;;;;;6.43;3.05;;;;;;;;;;5015857;28;20211;-43
2023/07/01 12:18:42;;;;;;;3.80;3.33;;;;;;;;;;5016694;28;20234;-44
2023/07/01 12:21:08;;;;;;;5.78;3.00;;;;;;;;;;5019412;28;20626;-44
2023/07/01 12:23:41;;;;;;;5.10;3.00;;;;;;;;;;5020740;28;20551;-43
2023/07/01 12:26:07;;;;;;;6.22;3.05;;;;;;;;;;5016831;28;20168;-43
2023/07/01 12:28:33;;;;;;;3.05;2.70;;;;;;;;;;5016296;28;20172;-43
2023/07/01 12:30:59;;;;;;;4.30;2.70;;;;;;;;;;5016485;28;20263;-44
2023/07/01 12:33:25;;;;;;;6.43;3.30;;;;;;;;;;5016548;28;20187;-43
2023/07/01 12:35:51;;;;;;;3.22;2.78;;;;;;;;;;5017985;28;20180;-45
2023/07/01 12:38:17;;;;;;;4.15;2.50;;;;;;;;;;5016055;28;20188;-45
2023/07/01 12:40:43;;;;;;;4.57;2.53;;;;;;;;;;5020492;28;20196;-45
2023/07/01 12:43:10;;;;;;;5.22;2.97;;;;;;;;;;5015891;28;20196;-44
2023/07/01 12:45:37;;;;;;;4.38;2.90;;;;;;;;;;5016030;28;20756;-44
2023/07/01 12:48:07;;;;;;;5.45;2.88;;;;;;;;;;5014826;28;20195;-44
2023/07/01 12:50:33;;;;;;;4.63;2.47;;;;;;;;;;5016706;28;20219;-45
2023/07/01 12:52:59;;;;;;;7.03;2.60;;;;;;;;;;5016164;28;20472;-44
2023/07/01 12:55:25;;;;;;;7.30;2.95;;;;;;;;;;5017773;28;20450;-45
2023/07/01 12:57:51;;;;;;;6.03;2.92;;;;;;;;;;5023058;28;20199;-45
2023/07/01 13:00:17;;;;;;;4.15;2.65;;;;;;;;;;5015993;28;20268;-45
2023/07/01 13:02:44;;;;;;;6.60;2.53;;;;;;;;;;5015983;28;20263;-45
2023/07/01 13:05:18;;;;;;;5.90;2.58;;;;;;;;;;5017749;28;20560;-45
2023/07/01 13:07:46;;;;;;;6.03;3.42;;;;;;;;;;5017001;28;20207;-45
2023/07/01 13:10:12;;;;;;;6.68;2.58;;;;;;;;;;5016583;28;20598;-45
2023/07/01 13:12:38;;;;;;;4.10;2.47;;;;;;;;;;5015827;28;20563;-45
2023/07/01 13:15:18;;;;;;;3.22;2.63;;;;;;;;;;5015650;28;20184;-45
2023/07/01 13:17:44;;;;;;;4.15;2.47;;;;;;;;;;5014523;28;20184;-45
2023/07/01 13:20:11;;;;;;;3.25;2.40;;;;;;;;;;5015399;28;20211;-44
2023/07/01 13:22:37;;;;;;;3.72;2.30;;;;;;;;;;5015681;28;20212;-45
2023/07/01 13:25:04;;;;;;;4.32;2.60;;;;;;;;;;5014956;28;20275;-45
2023/07/01 13:27:30;;;;;;;8.85;2.78;;;;;;;;;;5014106;28;20176;-45
2023/07/01 13:29:56;;;;;;;5.00;2.90;;;;;;;;;;5015475;28;20299;-45
2023/07/01 13:32:22;;;;;;;4.35;2.70;;;;;;;;;;5016535;28;20196;-45
2023/07/01 13:34:49;;;;;;;4.03;2.28;;;;;;;;;;5022758;28;20621;-45
2023/07/01 13:37:18;;;;;;;5.13;2.60;;;;;;;;;;5014811;28;20185;-45
2023/07/01 13:39:46;;;;;;;4.55;2.78;;;;;;;;;;5015196;28;20236;-45
2023/07/01 13:42:13;;;;;;;7.97;2.47;;;;;;;;;;5014890;28;20551;-45
2023/07/01 13:44:40;;;;;;;3.20;2.55;;;;;;;;;;5015194;28;20267;-45
2023/07/01 13:47:06;;;;;;;5.97;2.80;;;;;;;;;;5013748;28;20231;-45
2023/07/01 13:49:33;;;;;;;5.78;2.50;;;;;;;;;;5015155;28;20180;-45
2023/07/01 13:52:01;;;;;;;5.57;2.75;;;;;;;;;;5015103;28;20448;-45
2023/07/01 13:54:27;;;;;;;5.18;2.42;;;;;;;;;;5020632;28;20180;-49
2023/07/01 13:56:54;;;;;;;4.35;2.40;;;;;;;;;;5000196;28;20494;-45
2023/07/01 13:59:21;;;;;;;3.38;2.08;;;;;;;;;;5014758;28;20178;-45
2023/07/01 14:01:56;;;;;;;3.30;2.30;;;;;;;;;;5015086;28;20231;-45
2023/07/01 14:04:22;;;;;;;2.80;2.53;;;;;;;;;;5020290;28;20182;-45
2023/07/01 14:06:48;;;;;;;3.33;2.10;;;;;;;;;;5015758;28;20599;-45
2023/07/01 14:09:22;;;;;;;5.00;2.55;;;;;;;;;;5014980;28;20287;-45
2023/07/01 14:11:48;;;;;;;3.42;2.25;;;;;;;;;;5014592;28;20184;-45
2023/07/01 14:14:19;;;;;;;3.10;2.75;;;;;;;;;;5008494;28;20262;-45
2023/07/01 14:16:45;;;;;;;3.05;2.50;;;;;;;;;;5013906;28;20185;-45
2023/07/01 14:19:13;;;;;;;2.60;2.20;;;;;;;;;;5020242;28;20176;-45
2023/07/01 14:21:39;;;;;;;2.60;2.40;;;;;;;;;;5013981;28;20216;-45
2023/07/01 14:24:05;;;;;;;3.22;2.22;;;;;;;;;;5014577;28;20204;-44
2023/07/01 14:26:37;;;;;;;5.00;2.40;;;;;;;;;;5014015;28;20200;-44
2023/07/01 14:29:03;;;;;;;2.58;2.25;;;;;;;;;;5015743;28;20180;-44
2023/07/01 14:31:32;;;;;;;2.92;2.28;;;;;;;;;;5017409;28;20195;-45
2023/07/01 14:33:59;;;;;;;2.85;2.42;;;;;;;;;;5016670;28;20215;-45
2023/07/01 14:36:29;;;;;;;3.38;2.63;;;;;;;;;;5024663;28;20501;-44
2023/07/01 14:38:55;;;;;;;5.80;2.50;;;;;;;;;;5019262;28;20211;-44
2023/07/01 14:41:23;;;;;;;4.93;2.60;;;;;;;;;;5014206;28;20212;-46
2023/07/01 14:43:53;;;;;;;5.50;2.75;;;;;;;;;;5014446;28;20596;-44